sensor_id;sensor_type;location;lat;lon;timestamp;pressure;altitude;pressure_sealevel;temperature;humidity
37904;BME280;23738;50.422;18.758;2023-04-08T00:00:11;98628.92;;;3.66;86.38
37904;BME280;23738;50.422;18.758;2023-04-08T00:02:40;98632.46;;;3.67;86.38
37904;BME280;23738;50.422;18.758;2023-04-08T00:05:10;98632.07;;;3.71;86.49
37904;BME280;23738;50.422;18.758;2023-04-08T00:07:39;98634.05;;;3.75;86.60
37904;BME280;23738;50.422;18.758;2023-04-08T00:10:10;98637.22;;;3.77;86.42
37904;BME280;23738;50.422;18.758;2023-04-08T00:12:39;98641.48;;;3.74;86.29
37904;BME280;23738;50.422;18.758;2023-04-08T00:15:09;98645.12;;;3.73;86.51
37904;BME280;23738;50.422;18.758;2023-04-08T00:17:40;98647.92;;;3.69;86.45
37904;BME280;23738;50.422;18.758;2023-04-08T00:20:10;98655.48;;;3.65;86.23
37904;BME280;23738;50.422;18.758;2023-04-08T00:22:39;98657.70;;;3.64;86.40
37904;BME280;23738;50.422;18.758;2023-04-08T00:25:09;98660.88;;;3.65;86.06
37904;BME280;23738;50.422;18.758;2023-04-08T00:27:39;98657.95;;;3.65;86.28
37904;BME280;23738;50.422;18.758;2023-04-08T00:30:10;98657.94;;;3.65;86.44
37904;BME280;23738;50.422;18.758;2023-04-08T00:32:39;98661.87;;;3.66;86.34
37904;BME280;23738;50.422;18.758;2023-04-08T00:35:09;98666.77;;;3.64;86.33
37904;BME280;23738;50.422;18.758;2023-04-08T00:37:39;98670.13;;;3.65;86.30
37904;BME280;23738;50.422;18.758;2023-04-08T00:40:10;98671.27;;;3.67;86.22
37904;BME280;23738;50.422;18.758;2023-04-08T00:42:39;98671.24;;;3.69;86.33
37904;BME280;23738;50.422;18.758;2023-04-08T00:45:10;98675.55;;;3.66;86.20
37904;BME280;23738;50.422;18.758;2023-04-08T00:47:40;98671.05;;;3.64;86.31
37904;BME280;23738;50.422;18.758;2023-04-08T00:50:11;98670.09;;;3.63;86.31
37904;BME280;23738;50.422;18.758;2023-04-08T00:52:40;98673.30;;;3.61;86.21
37904;BME280;23738;50.422;18.758;2023-04-08T00:55:09;98670.19;;;3.59;86.04
37904;BME280;23738;50.422;18.758;2023-04-08T00:57:39;98665.65;;;3.57;85.99
37904;BME280;23738;50.422;18.758;2023-04-08T01:00:11;98669.61;;;3.58;86.00
37904;BME280;23738;50.422;18.758;2023-04-08T01:02:44;98674.55;;;3.59;86.11
37904;BME280;23738;50.422;18.758;2023-04-08T01:05:26;98677.02;;;3.60;86.02
37904;BME280;23738;50.422;18.758;2023-04-08T01:08:00;98674.96;;;3.58;86.13
37904;BME280;23738;50.422;18.758;2023-04-08T01:10:34;98680.48;;;3.57;86.22
37904;BME280;23738;50.422;18.758;2023-04-08T01:13:08;98681.91;;;3.55;86.00
37904;BME280;23738;50.422;18.758;2023-04-08T01:15:39;98682.93;;;3.55;85.92
37904;BME280;23738;50.422;18.758;2023-04-08T01:18:12;98685.27;;;3.60;86.05
37904;BME280;23738;50.422;18.758;2023-04-08T01:20:42;98692.71;;;3.62;86.13
37904;BME280;23738;50.422;18.758;2023-04-08T01:23:17;98692.60;;;3.63;86.16
37904;BME280;23738;50.422;18.758;2023-04-08T01:25:50;98694.20;;;3.63;85.98
37904;BME280;23738;50.422;18.758;2023-04-08T01:28:21;98690.07;;;3.62;86.08
37904;BME280;23738;50.422;18.758;2023-04-08T01:30:52;98688.13;;;3.61;85.76
37904;BME280;23738;50.422;18.758;2023-04-08T01:33:24;98690.84;;;3.61;85.93
37904;BME280;23738;50.422;18.758;2023-04-08T01:35:56;98691.02;;;3.63;85.81
37904;BME280;23738;50.422;18.758;2023-04-08T01:38:26;98694.17;;;3.65;85.89
37904;BME280;23738;50.422;18.758;2023-04-08T01:40:57;98695.52;;;3.62;85.70
37904;BME280;23738;50.422;18.758;2023-04-08T01:43:27;98700.11;;;3.58;85.69
37904;BME280;23738;50.422;18.758;2023-04-08T01:45:59;98701.80;;;3.55;85.67
37904;BME280;23738;50.422;18.758;2023-04-08T01:48:30;98700.02;;;3.53;85.58
37904;BME280;23738;50.422;18.758;2023-04-08T01:51:00;98698.41;;;3.52;85.79
37904;BME280;23738;50.422;18.758;2023-04-08T01:53:30;98698.31;;;3.53;85.77
37904;BME280;23738;50.422;18.758;2023-04-08T01:56:05;98699.90;;;3.51;85.51
37904;BME280;23738;50.422;18.758;2023-04-08T01:58:38;98699.66;;;3.44;85.43
37904;BME280;23738;50.422;18.758;2023-04-08T02:01:11;98703.52;;;3.39;85.33
37904;BME280;23738;50.422;18.758;2023-04-08T02:03:43;98705.05;;;3.34;85.37
37904;BME280;23738;50.422;18.758;2023-04-08T02:06:13;98703.48;;;3.31;85.29
37904;BME280;23738;50.422;18.758;2023-04-08T02:08:42;98700.99;;;3.27;85.40
37904;BME280;23738;50.422;18.758;2023-04-08T02:11:11;98708.54;;;3.27;85.39
37904;BME280;23738;50.422;18.758;2023-04-08T02:13:41;98705.73;;;3.25;85.28
37904;BME280;23738;50.422;18.758;2023-04-08T02:16:14;98702.14;;;3.21;85.20
37904;BME280;23738;50.422;18.758;2023-04-08T02:18:49;98706.64;;;3.18;85.09
37904;BME280;23738;50.422;18.758;2023-04-08T02:21:29;98706.89;;;3.14;85.22
37904;BME280;23738;50.422;18.758;2023-04-08T02:24:03;98709.05;;;3.09;85.09
37904;BME280;23738;50.422;18.758;2023-04-08T02:26:36;98709.04;;;3.07;84.95
37904;BME280;23738;50.422;18.758;2023-04-08T02:29:07;98711.08;;;3.04;84.91
37904;BME280;23738;50.422;18.758;2023-04-08T02:31:41;98715.23;;;3.01;84.87
37904;BME280;23738;50.422;18.758;2023-04-08T02:34:11;98713.76;;;2.98;84.95
37904;BME280;23738;50.422;18.758;2023-04-08T02:36:42;98712.30;;;2.93;84.95
37904;BME280;23738;50.422;18.758;2023-04-08T02:39:13;98715.55;;;2.89;84.89
37904;BME280;23738;50.422;18.758;2023-04-08T02:41:42;98711.41;;;2.83;84.83
37904;BME280;23738;50.422;18.758;2023-04-08T02:44:11;98713.80;;;2.82;84.80
37904;BME280;23738;50.422;18.758;2023-04-08T02:46:41;98717.59;;;2.82;84.74
37904;BME280;23738;50.422;18.758;2023-04-08T02:49:10;98717.48;;;2.83;84.88
37904;BME280;23738;50.422;18.758;2023-04-08T02:51:39;98718.27;;;2.82;84.78
37904;BME280;23738;50.422;18.758;2023-04-08T02:54:08;98720.88;;;2.79;84.60
37904;BME280;23738;50.422;18.758;2023-04-08T02:56:38;98720.22;;;2.73;84.36
37904;BME280;23738;50.422;18.758;2023-04-08T02:59:07;98721.65;;;2.66;84.67
37904;BME280;23738;50.422;18.758;2023-04-08T03:01:36;98728.39;;;2.63;84.67
37904;BME280;23738;50.422;18.758;2023-04-08T03:04:06;98726.92;;;2.60;84.53
37904;BME280;23738;50.422;18.758;2023-04-08T03:06:35;98730.89;;;2.59;84.33
37904;BME280;23738;50.422;18.758;2023-04-08T03:09:04;98731.27;;;2.59;84.37
37904;BME280;23738;50.422;18.758;2023-04-08T03:11:34;98733.41;;;2.54;84.51
37904;BME280;23738;50.422;18.758;2023-04-08T03:14:03;98735.14;;;2.47;84.30
37904;BME280;23738;50.422;18.758;2023-04-08T03:16:32;98737.31;;;2.43;84.41
37904;BME280;23738;50.422;18.758;2023-04-08T03:19:02;98735.86;;;2.36;83.92
37904;BME280;23738;50.422;18.758;2023-04-08T03:21:31;98731.09;;;2.29;84.30
37904;BME280;23738;50.422;18.758;2023-04-08T03:24:00;98739.48;;;2.28;84.34
37904;BME280;23738;50.422;18.758;2023-04-08T03:26:29;98736.80;;;2.29;84.12
37904;BME280;23738;50.422;18.758;2023-04-08T03:28:59;98729.54;;;2.25;84.22
37904;BME280;23738;50.422;18.758;2023-04-08T03:31:28;98738.80;;;2.28;84.12
37904;BME280;23738;50.422;18.758;2023-04-08T03:33:58;98741.34;;;2.27;84.39
37904;BME280;23738;50.422;18.758;2023-04-08T03:36:27;98738.23;;;2.21;84.33
37904;BME280;23738;50.422;18.758;2023-04-08T03:38:58;98748.27;;;2.20;84.16
37904;BME280;23738;50.422;18.758;2023-04-08T03:41:27;98750.38;;;2.16;84.23
37904;BME280;23738;50.422;18.758;2023-04-08T03:43:57;98751.72;;;2.15;84.19
37904;BME280;23738;50.422;18.758;2023-04-08T03:46:27;98759.65;;;2.17;83.88
37904;BME280;23738;50.422;18.758;2023-04-08T03:48:57;98756.48;;;2.16;84.29
37904;BME280;23738;50.422;18.758;2023-04-08T03:51:26;98762.83;;;2.19;84.11
37904;BME280;23738;50.422;18.758;2023-04-08T03:53:56;98762.91;;;2.18;84.04
37904;BME280;23738;50.422;18.758;2023-04-08T03:56:26;98762.23;;;2.10;84.03
37904;BME280;23738;50.422;18.758;2023-04-08T03:58:55;98763.70;;;2.05;84.15
37904;BME280;23738;50.422;18.758;2023-04-08T04:01:25;98765.54;;;2.03;83.83
37904;BME280;23738;50.422;18.758;2023-04-08T04:03:54;98767.27;;;1.97;83.97
37904;BME280;23738;50.422;18.758;2023-04-08T04:06:24;98772.86;;;1.99;83.83
37904;BME280;23738;50.422;18.758;2023-04-08T04:08:55;98774.52;;;1.99;83.95
37904;BME280;23738;50.422;18.758;2023-04-08T04:11:24;98777.31;;;2.01;83.92
37904;BME280;23738;50.422;18.758;2023-04-08T04:13:54;98780.49;;;2.02;83.92
37904;BME280;23738;50.422;18.758;2023-04-08T04:16:23;98780.47;;;2.01;84.09
37904;BME280;23738;50.422;18.758;2023-04-08T04:18:53;98785.98;;;1.99;84.27
37904;BME280;23738;50.422;18.758;2023-04-08T04:21:23;98791.79;;;1.99;84.21
37904;BME280;23738;50.422;18.758;2023-04-08T04:23:52;98794.20;;;1.99;84.11
37904;BME280;23738;50.422;18.758;2023-04-08T04:26:21;98797.20;;;2.00;84.04
37904;BME280;23738;50.422;18.758;2023-04-08T04:28:50;98797.86;;;2.03;84.23
37904;BME280;23738;50.422;18.758;2023-04-08T04:31:21;98802.10;;;2.07;84.40
37904;BME280;23738;50.422;18.758;2023-04-08T04:33:51;98800.35;;;2.11;84.36
37904;BME280;23738;50.422;18.758;2023-04-08T04:36:20;98801.31;;;2.12;84.06
37904;BME280;23738;50.422;18.758;2023-04-08T04:38:50;98805.81;;;2.12;84.25
37904;BME280;23738;50.422;18.758;2023-04-08T04:41:19;98808.77;;;2.10;84.22
37904;BME280;23738;50.422;18.758;2023-04-08T04:43:49;98810.38;;;2.08;84.12
37904;BME280;23738;50.422;18.758;2023-04-08T04:46:19;98810.64;;;2.09;84.05
37904;BME280;23738;50.422;18.758;2023-04-08T04:48:49;98811.57;;;2.14;84.08
37904;BME280;23738;50.422;18.758;2023-04-08T04:51:18;98812.73;;;2.18;84.21
37904;BME280;23738;50.422;18.758;2023-04-08T04:53:47;98813.77;;;2.24;84.51
37904;BME280;23738;50.422;18.758;2023-04-08T04:56:17;98815.36;;;2.28;84.21
37904;BME280;23738;50.422;18.758;2023-04-08T04:58:48;98818.39;;;2.32;84.47
37904;BME280;23738;50.422;18.758;2023-04-08T05:01:18;98820.20;;;2.36;84.61
37904;BME280;23738;50.422;18.758;2023-04-08T05:03:47;98815.07;;;2.39;84.80
37904;BME280;23738;50.422;18.758;2023-04-08T05:06:17;98818.52;;;2.44;84.49
37904;BME280;23738;50.422;18.758;2023-04-08T05:08:46;98820.09;;;2.50;84.30
37904;BME280;23738;50.422;18.758;2023-04-08T05:11:16;98826.05;;;2.55;84.57
37904;BME280;23738;50.422;18.758;2023-04-08T05:13:46;98827.77;;;2.61;84.87
37904;BME280;23738;50.422;18.758;2023-04-08T05:16:16;98829.26;;;2.65;84.83
37904;BME280;23738;50.422;18.758;2023-04-08T05:18:45;98830.00;;;2.66;84.73
37904;BME280;23738;50.422;18.758;2023-04-08T05:21:15;98832.31;;;2.70;84.77
37904;BME280;23738;50.422;18.758;2023-04-08T05:23:44;98837.90;;;2.72;84.61
37904;BME280;23738;50.422;18.758;2023-04-08T05:26:13;98834.45;;;2.77;84.53
37904;BME280;23738;50.422;18.758;2023-04-08T05:28:43;98835.77;;;2.83;84.66
37904;BME280;23738;50.422;18.758;2023-04-08T05:31:12;98841.68;;;2.88;84.57
37904;BME280;23738;50.422;18.758;2023-04-08T05:33:43;98844.78;;;2.96;84.88
37904;BME280;23738;50.422;18.758;2023-04-08T05:36:14;98846.42;;;2.99;84.62
37904;BME280;23738;50.422;18.758;2023-04-08T05:38:43;98849.39;;;3.01;84.67
37904;BME280;23738;50.422;18.758;2023-04-08T05:41:12;98845.62;;;3.06;84.96
37904;BME280;23738;50.422;18.758;2023-04-08T05:43:42;98853.95;;;3.17;84.83
37904;BME280;23738;50.422;18.758;2023-04-08T05:46:11;98855.33;;;3.28;84.90
37904;BME280;23738;50.422;18.758;2023-04-08T05:48:40;98854.29;;;3.46;85.03
37904;BME280;23738;50.422;18.758;2023-04-08T05:51:13;98856.14;;;3.63;85.12
37904;BME280;23738;50.422;18.758;2023-04-08T05:53:45;98859.63;;;3.75;85.29
37904;BME280;23738;50.422;18.758;2023-04-08T05:56:14;98861.11;;;3.87;85.02
37904;BME280;23738;50.422;18.758;2023-04-08T05:58:44;98859.86;;;3.96;85.09
37904;BME280;23738;50.422;18.758;2023-04-08T06:01:13;98866.39;;;4.10;85.23
37904;BME280;23738;50.422;18.758;2023-04-08T06:03:43;98870.58;;;4.27;85.28
37904;BME280;23738;50.422;18.758;2023-04-08T06:06:12;98875.24;;;4.41;85.13
37904;BME280;23738;50.422;18.758;2023-04-08T06:08:41;98874.13;;;4.49;84.99
37904;BME280;23738;50.422;18.758;2023-04-08T06:11:11;98871.09;;;4.60;85.16
37904;BME280;23738;50.422;18.758;2023-04-08T06:13:40;98871.39;;;4.75;85.12
37904;BME280;23738;50.422;18.758;2023-04-08T06:16:14;98871.62;;;4.86;85.00
37904;BME280;23738;50.422;18.758;2023-04-08T06:18:45;98877.40;;;4.96;84.54
37904;BME280;23738;50.422;18.758;2023-04-08T06:21:14;98879.73;;;5.06;84.48
37904;BME280;23738;50.422;18.758;2023-04-08T06:23:44;98880.97;;;5.14;84.04
37904;BME280;23738;50.422;18.758;2023-04-08T06:26:13;98878.77;;;5.20;84.27
37904;BME280;23738;50.422;18.758;2023-04-08T06:28:43;98881.80;;;5.31;84.65
37904;BME280;23738;50.422;18.758;2023-04-08T06:31:12;98884.73;;;5.51;85.20
37904;BME280;23738;50.422;18.758;2023-04-08T06:33:42;98883.46;;;5.68;84.80
37904;BME280;23738;50.422;18.758;2023-04-08T06:36:11;98885.55;;;5.79;84.31
37904;BME280;23738;50.422;18.758;2023-04-08T06:38:40;98888.33;;;5.91;84.16
37904;BME280;23738;50.422;18.758;2023-04-08T06:41:09;98894.95;;;6.05;84.38
37904;BME280;23738;50.422;18.758;2023-04-08T06:43:39;98893.89;;;6.25;84.73
37904;BME280;23738;50.422;18.758;2023-04-08T06:46:08;98895.17;;;6.40;84.40
37904;BME280;23738;50.422;18.758;2023-04-08T06:48:38;98904.42;;;6.52;83.91
37904;BME280;23738;50.422;18.758;2023-04-08T06:51:07;98903.27;;;6.62;84.16
37904;BME280;23738;50.422;18.758;2023-04-08T06:53:36;98902.67;;;6.77;83.53
37904;BME280;23738;50.422;18.758;2023-04-08T06:56:06;98908.16;;;6.71;82.90
37904;BME280;23738;50.422;18.758;2023-04-08T06:58:36;98907.84;;;6.64;82.72
37904;BME280;23738;50.422;18.758;2023-04-08T07:01:06;98915.41;;;6.52;82.27
37904;BME280;23738;50.422;18.758;2023-04-08T07:03:35;98907.55;;;6.47;82.71
37904;BME280;23738;50.422;18.758;2023-04-08T07:06:05;98911.60;;;6.65;82.93
37904;BME280;23738;50.422;18.758;2023-04-08T07:08:35;98912.52;;;6.80;82.88
37904;BME280;23738;50.422;18.758;2023-04-08T07:11:04;98913.36;;;7.05;82.83
37904;BME280;23738;50.422;18.758;2023-04-08T07:13:34;98917.39;;;7.31;82.51
37904;BME280;23738;50.422;18.758;2023-04-08T07:16:05;98917.73;;;7.30;82.51
37904;BME280;23738;50.422;18.758;2023-04-08T07:18:35;98918.73;;;7.26;81.48
37904;BME280;23738;50.422;18.758;2023-04-08T07:21:05;98920.63;;;7.35;82.41
37904;BME280;23738;50.422;18.758;2023-04-08T07:23:35;98922.07;;;7.63;83.13
37904;BME280;23738;50.422;18.758;2023-04-08T07:26:04;98921.44;;;7.98;82.95
37904;BME280;23738;50.422;18.758;2023-04-08T07:28:34;98925.02;;;8.15;82.57
37904;BME280;23738;50.422;18.758;2023-04-08T07:31:11;98926.49;;;8.25;81.97
37904;BME280;23738;50.422;18.758;2023-04-08T07:33:41;98933.10;;;8.39;82.08
37904;BME280;23738;50.422;18.758;2023-04-08T07:36:12;98932.06;;;8.43;80.89
37904;BME280;23738;50.422;18.758;2023-04-08T07:38:42;98933.98;;;8.31;80.76
37904;BME280;23738;50.422;18.758;2023-04-08T07:41:11;98933.19;;;8.37;80.79
37904;BME280;23738;50.422;18.758;2023-04-08T07:43:40;98936.41;;;8.55;81.18
37904;BME280;23738;50.422;18.758;2023-04-08T07:46:10;98940.91;;;8.64;80.34
37904;BME280;23738;50.422;18.758;2023-04-08T07:48:39;98942.73;;;8.59;79.71
37904;BME280;23738;50.422;18.758;2023-04-08T07:51:09;98948.26;;;8.46;79.17
37904;BME280;23738;50.422;18.758;2023-04-08T07:53:39;98949.17;;;8.24;78.82
37904;BME280;23738;50.422;18.758;2023-04-08T07:56:12;98951.50;;;8.02;78.54
37904;BME280;23738;50.422;18.758;2023-04-08T07:58:43;98950.13;;;7.87;79.19
37904;BME280;23738;50.422;18.758;2023-04-08T08:01:19;98951.90;;;7.88;79.25
37904;BME280;23738;50.422;18.758;2023-04-08T08:03:49;98947.00;;;8.13;80.21
37904;BME280;23738;50.422;18.758;2023-04-08T08:06:19;98954.96;;;8.36;79.87
37904;BME280;23738;50.422;18.758;2023-04-08T08:08:49;98959.59;;;8.46;79.37
37904;BME280;23738;50.422;18.758;2023-04-08T08:11:18;98960.28;;;8.50;78.94
37904;BME280;23738;50.422;18.758;2023-04-08T08:13:48;98964.31;;;8.73;78.42
37904;BME280;23738;50.422;18.758;2023-04-08T08:27:31;98965.33;;;9.21;77.25
37904;BME280;23738;50.422;18.758;2023-04-08T08:30:01;98967.04;;;9.05;77.14
37904;BME280;23738;50.422;18.758;2023-04-08T08:32:31;98970.86;;;9.04;76.96
37904;BME280;23738;50.422;18.758;2023-04-08T08:35:00;98974.05;;;9.10;77.09
37904;BME280;23738;50.422;18.758;2023-04-08T08:37:30;98972.94;;;9.16;77.28
37904;BME280;23738;50.422;18.758;2023-04-08T08:39:59;98971.64;;;9.30;77.18
37904;BME280;23738;50.422;18.758;2023-04-08T08:42:29;98969.21;;;9.47;76.30
37904;BME280;23738;50.422;18.758;2023-04-08T08:45:02;98978.01;;;9.45;75.17
37904;BME280;23738;50.422;18.758;2023-04-08T08:47:32;98975.50;;;9.45;76.07
37904;BME280;23738;50.422;18.758;2023-04-08T08:50:03;98982.73;;;9.59;75.44
37904;BME280;23738;50.422;18.758;2023-04-08T08:52:32;98984.85;;;9.67;75.24
37904;BME280;23738;50.422;18.758;2023-04-08T08:55:02;98980.86;;;9.67;74.99
37904;BME280;23738;50.422;18.758;2023-04-08T08:57:31;98983.59;;;9.64;75.52
37904;BME280;23738;50.422;18.758;2023-04-08T09:00:00;98985.45;;;9.79;75.37
37904;BME280;23738;50.422;18.758;2023-04-08T09:02:31;98989.91;;;9.74;74.14
37904;BME280;23738;50.422;18.758;2023-04-08T09:05:02;98990.86;;;9.58;74.37
37904;BME280;23738;50.422;18.758;2023-04-08T09:07:36;98989.19;;;9.60;74.78
37904;BME280;23738;50.422;18.758;2023-04-08T09:10:08;98992.99;;;9.87;74.97
37904;BME280;23738;50.422;18.758;2023-04-08T09:12:53;98988.48;;;10.05;74.36
37904;BME280;23738;50.422;18.758;2023-04-08T09:15:23;98989.98;;;10.13;74.12
37904;BME280;23738;50.422;18.758;2023-04-08T09:17:53;98993.39;;;10.16;74.34
37904;BME280;23738;50.422;18.758;2023-04-08T09:20:24;99000.48;;;10.37;74.05
37904;BME280;23738;50.422;18.758;2023-04-08T09:22:58;99004.11;;;10.42;73.95
37904;BME280;23738;50.422;18.758;2023-04-08T09:25:29;99008.67;;;10.35;73.58
37904;BME280;23738;50.422;18.758;2023-04-08T09:27:59;99008.02;;;10.53;73.60
37904;BME280;23738;50.422;18.758;2023-04-08T09:30:32;99015.30;;;10.61;72.88
37904;BME280;23738;50.422;18.758;2023-04-08T09:33:01;99014.17;;;10.56;72.92
37904;BME280;23738;50.422;18.758;2023-04-08T09:35:34;99018.02;;;10.55;71.89
37904;BME280;23738;50.422;18.758;2023-04-08T09:38:03;99022.59;;;10.41;72.20
37904;BME280;23738;50.422;18.758;2023-04-08T09:40:34;99026.11;;;10.26;72.23
37904;BME280;23738;50.422;18.758;2023-04-08T09:43:05;99020.80;;;10.44;72.46
37904;BME280;23738;50.422;18.758;2023-04-08T09:45:39;99019.65;;;10.47;72.20
37904;BME280;23738;50.422;18.758;2023-04-08T09:48:15;99016.95;;;10.60;72.84
37904;BME280;23738;50.422;18.758;2023-04-08T09:50:49;99014.39;;;10.90;73.14
37904;BME280;23738;50.422;18.758;2023-04-08T09:53:26;99013.24;;;11.35;73.63
37904;BME280;23738;50.422;18.758;2023-04-08T09:55:58;99007.07;;;11.76;72.98
37904;BME280;23738;50.422;18.758;2023-04-08T09:58:42;99006.98;;;12.07;72.52
37904;BME280;23738;50.422;18.758;2023-04-08T10:01:15;99002.52;;;12.34;72.29
37904;BME280;23738;50.422;18.758;2023-04-08T10:03:51;99007.94;;;12.31;71.49
37904;BME280;23738;50.422;18.758;2023-04-08T10:06:25;99003.02;;;12.47;71.28
37904;BME280;23738;50.422;18.758;2023-04-08T10:08:56;98996.95;;;12.71;71.81
37904;BME280;23738;50.422;18.758;2023-04-08T10:11:27;99006.06;;;12.90;70.55
37904;BME280;23738;50.422;18.758;2023-04-08T10:13:56;99009.42;;;12.99;70.82
37904;BME280;23738;50.422;18.758;2023-04-08T10:16:26;99006.68;;;13.05;70.99
37904;BME280;23738;50.422;18.758;2023-04-08T10:18:57;99004.14;;;13.26;70.99
37904;BME280;23738;50.422;18.758;2023-04-08T10:21:34;99010.63;;;13.42;70.79
37904;BME280;23738;50.422;18.758;2023-04-08T10:24:07;99010.09;;;13.17;69.12
37904;BME280;23738;50.422;18.758;2023-04-08T10:26:38;99011.73;;;12.84;69.23
37904;BME280;23738;50.422;18.758;2023-04-08T10:32:29;99016.30;;;12.81;69.35
37904;BME280;23738;50.422;18.758;2023-04-08T10:34:58;99014.11;;;12.84;68.79
37904;BME280;23738;50.422;18.758;2023-04-08T10:37:28;99013.69;;;12.90;68.59
37904;BME280;23738;50.422;18.758;2023-04-08T10:39:58;99013.83;;;12.91;67.94
37904;BME280;23738;50.422;18.758;2023-04-08T10:42:30;99016.02;;;12.81;68.31
37904;BME280;23738;50.422;18.758;2023-04-08T10:45:02;99015.02;;;12.81;68.51
37904;BME280;23738;50.422;18.758;2023-04-08T10:47:31;99012.02;;;12.88;68.30
37904;BME280;23738;50.422;18.758;2023-04-08T10:50:10;99016.41;;;12.88;67.83
37904;BME280;23738;50.422;18.758;2023-04-08T10:52:48;99012.20;;;12.80;68.01
37904;BME280;23738;50.422;18.758;2023-04-08T10:55:22;99011.75;;;12.76;67.67
37904;BME280;23738;50.422;18.758;2023-04-08T10:57:52;99011.95;;;12.70;66.75
37904;BME280;23738;50.422;18.758;2023-04-08T11:00:33;99016.79;;;12.61;66.80
37904;BME280;23738;50.422;18.758;2023-04-08T11:03:05;99017.69;;;12.63;67.07
37904;BME280;23738;50.422;18.758;2023-04-08T11:05:35;99024.46;;;12.69;65.99
37904;BME280;23738;50.422;18.758;2023-04-08T11:08:05;99015.48;;;12.80;66.25
37904;BME280;23738;50.422;18.758;2023-04-08T11:10:38;99011.45;;;12.92;65.44
37904;BME280;23738;50.422;18.758;2023-04-08T11:13:08;99011.23;;;13.15;66.28
37904;BME280;23738;50.422;18.758;2023-04-08T11:15:38;99014.46;;;13.38;66.15
37904;BME280;23738;50.422;18.758;2023-04-08T11:18:09;99016.42;;;13.64;65.52
37904;BME280;23738;50.422;18.758;2023-04-08T11:20:39;99013.62;;;13.94;66.00
37904;BME280;23738;50.422;18.758;2023-04-08T11:23:13;99016.60;;;13.94;64.96
37904;BME280;23738;50.422;18.758;2023-04-08T11:25:43;99020.04;;;13.77;64.96
37904;BME280;23738;50.422;18.758;2023-04-08T11:28:14;99023.21;;;13.58;64.39
37904;BME280;23738;50.422;18.758;2023-04-08T11:30:44;99023.20;;;13.38;64.28
37904;BME280;23738;50.422;18.758;2023-04-08T11:33:15;99020.96;;;13.24;64.70
37904;BME280;23738;50.422;18.758;2023-04-08T11:35:45;99022.10;;;13.13;64.57
37904;BME280;23738;50.422;18.758;2023-04-08T11:38:14;99024.13;;;12.93;64.24
37904;BME280;23738;50.422;18.758;2023-04-08T11:40:52;99030.31;;;12.76;63.77
37904;BME280;23738;50.422;18.758;2023-04-08T11:43:23;99025.80;;;12.60;64.08
37904;BME280;23738;50.422;18.758;2023-04-08T11:45:53;99024.73;;;12.49;64.10
37904;BME280;23738;50.422;18.758;2023-04-08T11:48:23;99027.20;;;12.41;63.77
37904;BME280;23738;50.422;18.758;2023-04-08T11:51:04;99025.31;;;12.27;63.82
37904;BME280;23738;50.422;18.758;2023-04-08T11:53:36;99027.33;;;12.19;63.83
37904;BME280;23738;50.422;18.758;2023-04-08T11:56:19;99028.42;;;12.10;63.64
37904;BME280;23738;50.422;18.758;2023-04-08T11:58:49;99028.13;;;11.92;63.65
37904;BME280;23738;50.422;18.758;2023-04-08T12:01:19;99025.36;;;11.77;63.47
37904;BME280;23738;50.422;18.758;2023-04-08T12:03:56;99026.59;;;11.64;63.48
37904;BME280;23738;50.422;18.758;2023-04-08T12:06:25;99033.39;;;11.50;62.86
37904;BME280;23738;50.422;18.758;2023-04-08T12:08:56;99030.90;;;11.38;63.42
37904;BME280;23738;50.422;18.758;2023-04-08T12:11:26;99032.27;;;11.31;63.24
37904;BME280;23738;50.422;18.758;2023-04-08T12:13:56;99031.00;;;11.23;63.08
37904;BME280;23738;50.422;18.758;2023-04-08T12:16:26;99028.80;;;11.25;63.33
37904;BME280;23738;50.422;18.758;2023-04-08T12:18:55;99026.14;;;11.28;63.36
37904;BME280;23738;50.422;18.758;2023-04-08T12:21:24;99029.63;;;11.26;63.14
37904;BME280;23738;50.422;18.758;2023-04-08T12:23:54;99025.96;;;11.21;63.08
37904;BME280;23738;50.422;18.758;2023-04-08T12:26:24;99029.58;;;11.20;63.52
37904;BME280;23738;50.422;18.758;2023-04-08T12:28:54;99029.02;;;11.22;63.43
37904;BME280;23738;50.422;18.758;2023-04-08T12:31:23;99025.44;;;11.21;63.46
37904;BME280;23738;50.422;18.758;2023-04-08T12:33:54;99027.24;;;11.19;63.47
37904;BME280;23738;50.422;18.758;2023-04-08T12:36:24;99030.50;;;11.19;63.54
37904;BME280;23738;50.422;18.758;2023-04-08T12:38:54;99032.20;;;11.18;62.97
37904;BME280;23738;50.422;18.758;2023-04-08T12:41:23;99034.02;;;11.07;62.76
37904;BME280;23738;50.422;18.758;2023-04-08T12:43:52;99035.09;;;10.99;62.98
37904;BME280;23738;50.422;18.758;2023-04-08T12:46:22;99037.14;;;10.92;62.93
37904;BME280;23738;50.422;18.758;2023-04-08T12:48:51;99035.18;;;10.83;62.67
37904;BME280;23738;50.422;18.758;2023-04-08T12:51:20;99030.86;;;10.73;62.93
37904;BME280;23738;50.422;18.758;2023-04-08T12:53:50;99032.02;;;10.67;62.94
37904;BME280;23738;50.422;18.758;2023-04-08T12:56:19;99032.48;;;10.60;63.10
37904;BME280;23738;50.422;18.758;2023-04-08T12:58:49;99034.46;;;10.60;63.33
37904;BME280;23738;50.422;18.758;2023-04-08T13:01:18;99034.89;;;10.62;62.96
37904;BME280;23738;50.422;18.758;2023-04-08T13:03:48;99036.11;;;10.61;63.18
37904;BME280;23738;50.422;18.758;2023-04-08T13:06:17;99042.05;;;10.55;63.23
37904;BME280;23738;50.422;18.758;2023-04-08T13:08:47;99042.63;;;10.52;63.35
37904;BME280;23738;50.422;18.758;2023-04-08T13:11:16;99041.88;;;10.47;63.30
37904;BME280;23738;50.422;18.758;2023-04-08T13:13:46;99040.42;;;10.40;63.43
37904;BME280;23738;50.422;18.758;2023-04-08T13:16:16;99045.33;;;10.36;63.20
37904;BME280;23738;50.422;18.758;2023-04-08T13:18:46;99050.73;;;10.25;63.30
37904;BME280;23738;50.422;18.758;2023-04-08T13:21:16;99051.69;;;10.14;63.29
37904;BME280;23738;50.422;18.758;2023-04-08T13:23:46;99050.42;;;10.01;63.47
37904;BME280;23738;50.422;18.758;2023-04-08T13:26:15;99051.54;;;9.93;63.59
37904;BME280;23738;50.422;18.758;2023-04-08T13:28:45;99051.55;;;9.87;63.69